sensor_id;sensor_type;location;lat;lon;timestamp;pressure;altitude;pressure_sealevel;temperature;humidity
60479;BME280;46321;48.398;11.754;2024-03-08T00:02:19;96593.50;;;0.99;80.79
60479;BME280;46321;48.398;11.754;2024-03-08T00:04:44;96589.00;;;1.01;81.05
60479;BME280;46321;48.398;11.754;2024-03-08T00:07:10;96594.22;;;1.01;80.82
60479;BME280;46321;48.398;11.754;2024-03-08T00:09:35;96589.97;;;1.00;80.77
60479;BME280;46321;48.398;11.754;2024-03-08T00:12:00;96587.56;;;0.97;81.00
60479;BME280;46321;48.398;11.754;2024-03-08T00:14:25;96591.13;;;0.96;81.29
60479;BME280;46321;48.398;11.754;2024-03-08T00:16:51;96583.91;;;1.00;80.95
60479;BME280;46321;48.398;11.754;2024-03-08T00:19:18;96590.06;;;0.99;80.90
60479;BME280;46321;48.398;11.754;2024-03-08T00:21:43;96577.38;;;0.94;81.06
60479;BME280;46321;48.398;11.754;2024-03-08T00:24:08;96569.91;;;0.89;81.85
60479;BME280;46321;48.398;11.754;2024-03-08T00:26:33;96576.88;;;0.89;81.99
60479;BME280;46321;48.398;11.754;2024-03-08T00:28:59;96577.81;;;0.88;81.74
60479;BME280;46321;48.398;11.754;2024-03-08T00:31:24;96568.44;;;0.85;81.94
60479;BME280;46321;48.398;11.754;2024-03-08T00:33:50;96563.00;;;0.88;81.90
60479;BME280;46321;48.398;11.754;2024-03-08T00:36:15;96559.81;;;0.85;81.81
60479;BME280;46321;48.398;11.754;2024-03-08T00:38:40;96562.41;;;0.85;81.78
60479;BME280;46321;48.398;11.754;2024-03-08T00:41:05;96560.53;;;0.87;81.85
60479;BME280;46321;48.398;11.754;2024-03-08T00:43:31;96558.59;;;0.77;81.77
60479;BME280;46321;48.398;11.754;2024-03-08T00:45:56;96561.59;;;0.84;81.34
60479;BME280;46321;48.398;11.754;2024-03-08T00:48:23;96557.28;;;0.83;81.81
60479;BME280;46321;48.398;11.754;2024-03-08T00:50:48;96552.09;;;0.83;81.58
60479;BME280;46321;48.398;11.754;2024-03-08T00:53:13;96554.47;;;0.86;81.75
60479;BME280;46321;48.398;11.754;2024-03-08T00:55:38;96557.53;;;0.80;81.77
60479;BME280;46321;48.398;11.754;2024-03-08T00:58:04;96548.88;;;0.79;81.90
60479;BME280;46321;48.398;11.754;2024-03-08T01:00:30;96551.69;;;0.76;82.00
60479;BME280;46321;48.398;11.754;2024-03-08T01:02:55;96544.00;;;0.75;82.02
60479;BME280;46321;48.398;11.754;2024-03-08T01:05:20;96540.41;;;0.64;82.55
60479;BME280;46321;48.398;11.754;2024-03-08T01:07:46;96540.41;;;0.64;82.63
60479;BME280;46321;48.398;11.754;2024-03-08T01:10:11;96539.47;;;0.65;82.52
60479;BME280;46321;48.398;11.754;2024-03-08T01:12:37;96539.38;;;0.67;82.71
60479;BME280;46321;48.398;11.754;2024-03-08T01:15:03;96541.25;;;0.65;82.70
60479;BME280;46321;48.398;11.754;2024-03-08T01:17:29;96538.53;;;0.66;82.95
60479;BME280;46321;48.398;11.754;2024-03-08T01:19:54;96539.47;;;0.65;83.04
60479;BME280;46321;48.398;11.754;2024-03-08T01:22:19;96533.53;;;0.63;83.14
60479;BME280;46321;48.398;11.754;2024-03-08T01:24:45;96528.56;;;0.60;83.54
60479;BME280;46321;48.398;11.754;2024-03-08T01:27:10;96528.09;;;0.66;83.41
60479;BME280;46321;48.398;11.754;2024-03-08T01:29:37;96523.94;;;0.64;83.69
60479;BME280;46321;48.398;11.754;2024-03-08T01:32:02;96516.47;;;0.59;83.87
60479;BME280;46321;48.398;11.754;2024-03-08T01:34:28;96519.78;;;0.61;83.30
60479;BME280;46321;48.398;11.754;2024-03-08T01:36:54;96523.09;;;0.63;83.64
60479;BME280;46321;48.398;11.754;2024-03-08T01:39:20;96512.09;;;0.60;84.11
60479;BME280;46321;48.398;11.754;2024-03-08T01:41:47;96512.53;;;0.53;84.53
60479;BME280;46321;48.398;11.754;2024-03-08T01:44:12;96504.81;;;0.52;84.53
60479;BME280;46321;48.398;11.754;2024-03-08T01:46:43;96502.72;;;0.57;84.42
60479;BME280;46321;48.398;11.754;2024-03-08T01:49:09;96491.91;;;0.50;84.23
60479;BME280;46321;48.398;11.754;2024-03-08T01:51:35;96489.91;;;0.54;84.64
60479;BME280;46321;48.398;11.754;2024-03-08T01:54:01;96489.03;;;0.42;85.09
60479;BME280;46321;48.398;11.754;2024-03-08T01:56:28;96488.91;;;0.43;84.87
60479;BME280;46321;48.398;11.754;2024-03-08T01:58:55;96491.41;;;0.45;85.21
60479;BME280;46321;48.398;11.754;2024-03-08T02:01:20;96482.16;;;0.41;85.30
60479;BME280;46321;48.398;11.754;2024-03-08T02:03:45;96480.91;;;0.47;85.16
60479;BME280;46321;48.398;11.754;2024-03-08T02:06:11;96485.25;;;0.46;85.19
60479;BME280;46321;48.398;11.754;2024-03-08T02:08:38;96484.16;;;0.37;85.67
60479;BME280;46321;48.398;11.754;2024-03-08T02:11:04;96476.13;;;0.40;85.69
60479;BME280;46321;48.398;11.754;2024-03-08T02:13:30;96476.22;;;0.39;85.38
60479;BME280;46321;48.398;11.754;2024-03-08T02:15:56;96471.75;;;0.41;85.64
60479;BME280;46321;48.398;11.754;2024-03-08T02:18:22;96463.22;;;0.39;85.47
60479;BME280;46321;48.398;11.754;2024-03-08T02:20:59;96465.44;;;0.32;85.93
60479;BME280;46321;48.398;11.754;2024-03-08T02:23:25;96465.75;;;0.27;86.21
60479;BME280;46321;48.398;11.754;2024-03-08T02:25:51;96457.53;;;0.33;85.93
60479;BME280;46321;48.398;11.754;2024-03-08T02:28:17;96457.53;;;0.33;85.68
60479;BME280;46321;48.398;11.754;2024-03-08T02:30:44;96452.91;;;0.37;85.63
60479;BME280;46321;48.398;11.754;2024-03-08T02:33:09;96448.16;;;0.31;85.79
60479;BME280;46321;48.398;11.754;2024-03-08T02:35:35;96451.69;;;0.30;85.86
60479;BME280;46321;48.398;11.754;2024-03-08T02:38:01;96448.16;;;0.31;85.86
60479;BME280;46321;48.398;11.754;2024-03-08T02:40:28;96447.66;;;0.26;85.86
60479;BME280;46321;48.398;11.754;2024-03-08T02:42:53;96451.94;;;0.27;85.96
60479;BME280;46321;48.398;11.754;2024-03-08T02:45:19;96440.03;;;0.22;85.90
60479;BME280;46321;48.398;11.754;2024-03-08T02:47:44;96444.44;;;0.22;85.99
60479;BME280;46321;48.398;11.754;2024-03-08T02:50:10;96448.38;;;0.28;85.86
60479;BME280;46321;48.398;11.754;2024-03-08T02:52:37;96443.50;;;0.23;85.81
60479;BME280;46321;48.398;11.754;2024-03-08T02:55:02;96450.38;;;0.24;85.61
60479;BME280;46321;48.398;11.754;2024-03-08T02:57:27;96434.25;;;0.19;85.82
60479;BME280;46321;48.398;11.754;2024-03-08T02:59:53;96434.84;;;0.22;85.70
60479;BME280;46321;48.398;11.754;2024-03-08T03:02:19;96434.38;;;0.17;86.16
60479;BME280;46321;48.398;11.754;2024-03-08T03:04:44;96439.56;;;0.17;86.06
60479;BME280;46321;48.398;11.754;2024-03-08T03:07:09;96433.66;;;0.15;86.32
60479;BME280;46321;48.398;11.754;2024-03-08T03:09:36;96434.13;;;0.20;85.87
60479;BME280;46321;48.398;11.754;2024-03-08T03:12:01;96438.06;;;0.26;85.52
60479;BME280;46321;48.398;11.754;2024-03-08T03:14:27;96438.28;;;0.23;85.44
60479;BME280;46321;48.398;11.754;2024-03-08T03:16:53;96428.09;;;0.20;85.86
60479;BME280;46321;48.398;11.754;2024-03-08T03:19:19;96429.75;;;0.21;85.87
60479;BME280;46321;48.398;11.754;2024-03-08T03:21:45;96416.84;;;0.19;85.93
60479;BME280;46321;48.398;11.754;2024-03-08T03:24:10;96421.69;;;0.13;86.04
60479;BME280;46321;48.398;11.754;2024-03-08T03:26:39;96421.22;;;0.19;86.31
60479;BME280;46321;48.398;11.754;2024-03-08T03:29:05;96425.22;;;0.11;86.16
60479;BME280;46321;48.398;11.754;2024-03-08T03:31:31;96429.09;;;0.06;86.90
60479;BME280;46321;48.398;11.754;2024-03-08T03:33:56;96420.19;;;0.21;86.48
60479;BME280;46321;48.398;11.754;2024-03-08T03:36:27;96421.81;;;0.22;86.51
60479;BME280;46321;48.398;11.754;2024-03-08T03:38:53;96423.03;;;0.30;86.58
60479;BME280;46321;48.398;11.754;2024-03-08T03:41:29;96421.78;;;0.36;86.32
60479;BME280;46321;48.398;11.754;2024-03-08T03:43:54;96417.75;;;0.43;86.40
60479;BME280;46321;48.398;11.754;2024-03-08T03:46:20;96418.09;;;0.38;86.02
60479;BME280;46321;48.398;11.754;2024-03-08T03:48:45;96417.75;;;0.43;86.55
60479;BME280;46321;48.398;11.754;2024-03-08T03:51:11;96425.03;;;0.51;85.97
60479;BME280;46321;48.398;11.754;2024-03-08T03:53:37;96419.94;;;0.49;86.78
60479;BME280;46321;48.398;11.754;2024-03-08T03:56:02;96424.78;;;0.54;86.00
60479;BME280;46321;48.398;11.754;2024-03-08T03:58:30;96428.69;;;0.48;86.42
60479;BME280;46321;48.398;11.754;2024-03-08T04:00:56;96431.75;;;0.42;86.87
60479;BME280;46321;48.398;11.754;2024-03-08T04:03:21;96414.81;;;0.48;86.79
60479;BME280;46321;48.398;11.754;2024-03-08T04:05:46;96415.66;;;0.48;86.81
60479;BME280;46321;48.398;11.754;2024-03-08T04:08:12;96410.31;;;0.50;86.66
60479;BME280;46321;48.398;11.754;2024-03-08T04:10:37;96412.34;;;0.46;86.76
60479;BME280;46321;48.398;11.754;2024-03-08T04:13:02;96409.88;;;0.56;86.60
60479;BME280;46321;48.398;11.754;2024-03-08T04:15:29;96406.16;;;0.47;86.92
60479;BME280;46321;48.398;11.754;2024-03-08T04:17:54;96416.97;;;0.54;86.54
60479;BME280;46321;48.398;11.754;2024-03-08T04:20:20;96406.91;;;0.49;86.72
60479;BME280;46321;48.398;11.754;2024-03-08T04:22:46;96406.31;;;0.57;86.61
60479;BME280;46321;48.398;11.754;2024-03-08T04:25:14;96403.00;;;0.55;86.38
60479;BME280;46321;48.398;11.754;2024-03-08T04:27:39;96392.94;;;0.50;86.89
60479;BME280;46321;48.398;11.754;2024-03-08T04:30:06;96398.00;;;0.52;86.79
60479;BME280;46321;48.398;11.754;2024-03-08T04:32:34;96398.13;;;0.50;86.79
60479;BME280;46321;48.398;11.754;2024-03-08T04:35:00;96396.03;;;0.55;86.35
60479;BME280;46321;48.398;11.754;2024-03-08T04:37:27;96396.25;;;0.52;86.55
60479;BME280;46321;48.398;11.754;2024-03-08T04:39:54;96392.94;;;0.50;86.47
60479;BME280;46321;48.398;11.754;2024-03-08T04:42:20;96395.28;;;0.42;86.72
60479;BME280;46321;48.398;11.754;2024-03-08T04:44:45;96402.13;;;0.43;86.70
60479;BME280;46321;48.398;11.754;2024-03-08T04:47:10;96390.91;;;0.42;86.41
60479;BME280;46321;48.398;11.754;2024-03-08T04:49:36;96390.06;;;0.42;86.67
60479;BME280;46321;48.398;11.754;2024-03-08T04:52:04;96400.59;;;0.40;86.20
60479;BME280;46321;48.398;11.754;2024-03-08T04:54:30;96386.63;;;0.41;86.55
60479;BME280;46321;48.398;11.754;2024-03-08T04:56:56;96386.84;;;0.38;86.25
60479;BME280;46321;48.398;11.754;2024-03-08T04:59:22;96386.75;;;0.40;86.54
60479;BME280;46321;48.398;11.754;2024-03-08T05:01:47;96380.13;;;0.36;86.49
60479;BME280;46321;48.398;11.754;2024-03-08T05:04:13;96383.66;;;0.34;86.42
60479;BME280;46321;48.398;11.754;2024-03-08T05:06:38;96381.63;;;0.38;86.09
60479;BME280;46321;48.398;11.754;2024-03-08T05:09:04;96380.13;;;0.36;85.95
60479;BME280;46321;48.398;11.754;2024-03-08T05:11:38;96378.66;;;0.31;85.95
60479;BME280;46321;48.398;11.754;2024-03-08T05:14:04;96372.13;;;0.26;86.35
60479;BME280;46321;48.398;11.754;2024-03-08T05:16:29;96369.41;;;0.27;86.01
60479;BME280;46321;48.398;11.754;2024-03-08T05:18:55;96374.03;;;0.24;86.47
60479;BME280;46321;48.398;11.754;2024-03-08T05:21:21;96376.41;;;0.27;86.17
60479;BME280;46321;48.398;11.754;2024-03-08T05:23:47;96378.41;;;0.23;86.06
60479;BME280;46321;48.398;11.754;2024-03-08T05:26:12;96377.69;;;0.21;85.88
60479;BME280;46321;48.398;11.754;2024-03-08T05:28:37;96379.09;;;0.25;85.75
60479;BME280;46321;48.398;11.754;2024-03-08T05:31:03;96369.88;;;0.21;85.86
60479;BME280;46321;48.398;11.754;2024-03-08T05:33:28;96375.91;;;0.21;85.98
60479;BME280;46321;48.398;11.754;2024-03-08T05:35:53;96369.03;;;0.20;85.93
60479;BME280;46321;48.398;11.754;2024-03-08T05:38:19;96368.09;;;0.21;85.51
60479;BME280;46321;48.398;11.754;2024-03-08T05:40:45;96372.34;;;0.22;85.69
60479;BME280;46321;48.398;11.754;2024-03-08T05:43:10;96363.81;;;0.20;85.71
60479;BME280;46321;48.398;11.754;2024-03-08T05:45:36;96363.72;;;0.22;85.47
60479;BME280;46321;48.398;11.754;2024-03-08T05:48:02;96362.69;;;0.25;85.27
60479;BME280;46321;48.398;11.754;2024-03-08T05:50:27;96366.00;;;0.27;85.18
60479;BME280;46321;48.398;11.754;2024-03-08T05:52:52;96360.78;;;0.27;85.23
60479;BME280;46321;48.398;11.754;2024-03-08T05:55:18;96362.19;;;0.19;85.17
60479;BME280;46321;48.398;11.754;2024-03-08T05:57:43;96366.75;;;0.16;85.13
60479;BME280;46321;48.398;11.754;2024-03-08T06:00:09;96368.09;;;0.21;85.10
60479;BME280;46321;48.398;11.754;2024-03-08T06:02:40;96367.50;;;0.18;85.15
60479;BME280;46321;48.398;11.754;2024-03-08T06:05:10;96361.47;;;0.17;85.08
60479;BME280;46321;48.398;11.754;2024-03-08T06:07:36;96363.56;;;0.12;85.20
60479;BME280;46321;48.398;11.754;2024-03-08T06:10:02;96362.06;;;0.21;85.08
60479;BME280;46321;48.398;11.754;2024-03-08T06:12:28;96358.19;;;0.27;84.65
60479;BME280;46321;48.398;11.754;2024-03-08T06:14:57;96352.72;;;0.30;84.53
60479;BME280;46321;48.398;11.754;2024-03-08T06:17:22;96353.06;;;0.25;84.68
60479;BME280;46321;48.398;11.754;2024-03-08T06:19:50;96351.75;;;0.19;84.79
60479;BME280;46321;48.398;11.754;2024-03-08T06:22:16;96353.19;;;0.24;85.00
60479;BME280;46321;48.398;11.754;2024-03-08T06:24:41;96351.53;;;0.22;85.13
60479;BME280;46321;48.398;11.754;2024-03-08T06:27:06;96355.78;;;0.24;85.15
60479;BME280;46321;48.398;11.754;2024-03-08T06:29:31;96358.91;;;0.29;84.52
60479;BME280;46321;48.398;11.754;2024-03-08T06:31:57;96356.09;;;0.43;84.37
60479;BME280;46321;48.398;11.754;2024-03-08T06:34:22;96362.34;;;0.41;83.91
60479;BME280;46321;48.398;11.754;2024-03-08T06:36:47;96352.22;;;0.49;84.01
60479;BME280;46321;48.398;11.754;2024-03-08T06:39:13;96359.66;;;0.54;83.49
60479;BME280;46321;48.398;11.754;2024-03-08T06:41:38;96355.44;;;0.64;83.02
60479;BME280;46321;48.398;11.754;2024-03-08T06:44:03;96357.31;;;0.62;83.24
60479;BME280;46321;48.398;11.754;2024-03-08T06:46:29;96354.00;;;0.83;82.31
60479;BME280;46321;48.398;11.754;2024-03-08T06:48:54;96354.28;;;0.91;82.01
60479;BME280;46321;48.398;11.754;2024-03-08T06:51:19;96352.59;;;1.02;81.90
60479;BME280;46321;48.398;11.754;2024-03-08T06:53:45;96347.13;;;1.17;80.93
60479;BME280;46321;48.398;11.754;2024-03-08T06:56:10;96346.56;;;1.24;80.50
60479;BME280;46321;48.398;11.754;2024-03-08T06:58:35;96348.81;;;1.18;80.17
60479;BME280;46321;48.398;11.754;2024-03-08T07:01:01;96348.47;;;1.11;80.66
60479;BME280;46321;48.398;11.754;2024-03-08T07:03:29;96354.00;;;1.41;80.02
60479;BME280;46321;48.398;11.754;2024-03-08T07:05:55;96349.31;;;1.67;79.48
60479;BME280;46321;48.398;11.754;2024-03-08T07:08:23;96338.97;;;1.77;78.07
60479;BME280;46321;48.398;11.754;2024-03-08T07:10:48;96349.00;;;1.93;77.40
60479;BME280;46321;48.398;11.754;2024-03-08T07:13:14;96355.91;;;1.94;76.50
60479;BME280;46321;48.398;11.754;2024-03-08T07:15:40;96348.13;;;2.04;76.18
60479;BME280;46321;48.398;11.754;2024-03-08T07:18:05;96349.53;;;2.09;76.23
60479;BME280;46321;48.398;11.754;2024-03-08T07:20:30;96357.53;;;1.96;76.06
60479;BME280;46321;48.398;11.754;2024-03-08T07:22:56;96348.59;;;2.10;76.41
60479;BME280;46321;48.398;11.754;2024-03-08T07:25:21;96351.16;;;2.21;75.42
60479;BME280;46321;48.398;11.754;2024-03-08T07:27:51;96349.94;;;2.25;74.99
60479;BME280;46321;48.398;11.754;2024-03-08T07:30:21;96354.00;;;1.97;75.72
60479;BME280;46321;48.398;11.754;2024-03-08T07:33:25;96348.03;;;2.06;75.86
60479;BME280;46321;48.398;11.754;2024-03-08T07:35:52;96346.91;;;2.09;75.44
60479;BME280;46321;48.398;11.754;2024-03-08T07:38:17;96348.94;;;1.83;75.83
60479;BME280;46321;48.398;11.754;2024-03-08T07:40:46;96348.63;;;1.98;75.87
60479;BME280;46321;48.398;11.754;2024-03-08T07:43:12;96347.63;;;2.11;75.64
60479;BME280;46321;48.398;11.754;2024-03-08T07:45:37;96346.19;;;1.85;76.14
60479;BME280;46321;48.398;11.754;2024-03-08T07:48:03;96333.97;;;1.86;76.14
60479;BME280;46321;48.398;11.754;2024-03-08T07:50:29;96352.34;;;1.84;76.35
60479;BME280;46321;48.398;11.754;2024-03-08T07:52:54;96349.59;;;1.97;75.76
60479;BME280;46321;48.398;11.754;2024-03-08T07:55:20;96349.28;;;2.12;75.57
60479;BME280;46321;48.398;11.754;2024-03-08T07:57:45;96346.75;;;2.22;75.33
60479;BME280;46321;48.398;11.754;2024-03-08T08:00:11;96342.81;;;2.27;75.37
60479;BME280;46321;48.398;11.754;2024-03-08T08:02:36;96337.34;;;2.31;74.53
60479;BME280;46321;48.398;11.754;2024-03-08T08:05:02;96345.59;;;2.36;75.13
60479;BME280;46321;48.398;11.754;2024-03-08T08:07:28;96335.38;;;2.44;73.67
60479;BME280;46321;48.398;11.754;2024-03-08T08:09:54;96336.78;;;2.48;73.74
60479;BME280;46321;48.398;11.754;2024-03-08T08:12:19;96322.41;;;2.64;72.94
60479;BME280;46321;48.398;11.754;2024-03-08T08:14:45;96328.69;;;2.83;72.11
60479;BME280;46321;48.398;11.754;2024-03-08T08:17:11;96336.28;;;3.17;69.97
60479;BME280;46321;48.398;11.754;2024-03-08T08:19:37;96326.66;;;3.28;69.48
60479;BME280;46321;48.398;11.754;2024-03-08T08:22:03;96323.47;;;3.24;69.46
60479;BME280;46321;48.398;11.754;2024-03-08T08:24:28;96323.09;;;3.39;69.09
60479;BME280;46321;48.398;11.754;2024-03-08T08:26:54;96324.56;;;3.83;68.51
60479;BME280;46321;48.398;11.754;2024-03-08T08:29:19;96324.44;;;4.14;66.44
60479;BME280;46321;48.398;11.754;2024-03-08T08:31:45;96324.81;;;3.80;67.14
60479;BME280;46321;48.398;11.754;2024-03-08T08:34:11;96315.34;;;3.98;66.75
60479;BME280;46321;48.398;11.754;2024-03-08T08:36:37;96308.78;;;5.00;65.34
60479;BME280;46321;48.398;11.754;2024-03-08T08:39:04;96290.84;;;6.52;60.78
60479;BME280;46321;48.398;11.754;2024-03-08T08:41:30;96284.38;;;7.43;57.13
60479;BME280;46321;48.398;11.754;2024-03-08T08:43:55;96285.41;;;7.50;55.63
60479;BME280;46321;48.398;11.754;2024-03-08T08:46:20;96282.47;;;7.87;55.14
60479;BME280;46321;48.398;11.754;2024-03-08T08:48:46;96286.25;;;7.07;55.83
60479;BME280;46321;48.398;11.754;2024-03-08T08:51:12;96283.28;;;7.10;55.00
60479;BME280;46321;48.398;11.754;2024-03-08T08:53:41;96276.91;;;7.98;54.20
60479;BME280;46321;48.398;11.754;2024-03-08T08:56:10;96275.09;;;8.07;52.88
60479;BME280;46321;48.398;11.754;2024-03-08T08:58:40;96273.69;;;7.53;53.14
60479;BME280;46321;48.398;11.754;2024-03-08T09:01:07;96280.38;;;7.90;52.45
60479;BME280;46321;48.398;11.754;2024-03-08T09:03:33;96276.31;;;7.53;53.94
60479;BME280;46321;48.398;11.754;2024-03-08T09:06:00;96267.56;;;7.27;54.11
60479;BME280;46321;48.398;11.754;2024-03-08T09:08:26;96268.34;;;7.19;53.79
60479;BME280;46321;48.398;11.754;2024-03-08T09:10:51;96259.28;;;8.24;53.04
60479;BME280;46321;48.398;11.754;2024-03-08T09:13:17;96260.75;;;9.96;47.92
60479;BME280;46321;48.398;11.754;2024-03-08T09:15:43;96245.22;;;11.53;44.30
60479;BME280;46321;48.398;11.754;2024-03-08T09:18:09;96252.38;;;12.40;42.34
60479;BME280;46321;48.398;11.754;2024-03-08T09:20:35;96246.50;;;13.79;40.40
60479;BME280;46321;48.398;11.754;2024-03-08T09:23:02;96237.31;;;14.36;38.14
60479;BME280;46321;48.398;11.754;2024-03-08T09:25:27;96231.53;;;14.66;38.34
60479;BME280;46321;48.398;11.754;2024-03-08T09:27:53;96224.31;;;15.86;35.00
60479;BME280;46321;48.398;11.754;2024-03-08T09:30:19;96228.16;;;17.61;32.88
60479;BME280;46321;48.398;11.754;2024-03-08T09:32:46;96220.53;;;17.15;33.28
60479;BME280;46321;48.398;11.754;2024-03-08T09:35:11;96230.25;;;18.02;30.59
60479;BME280;46321;48.398;11.754;2024-03-08T09:37:37;96233.88;;;17.15;31.47
60479;BME280;46321;48.398;11.754;2024-03-08T09:40:03;96222.13;;;16.08;33.77
60479;BME280;46321;48.398;11.754;2024-03-08T09:42:37;96209.16;;;18.36;31.51
60479;BME280;46321;48.398;11.754;2024-03-08T09:45:09;96213.06;;;18.94;28.58
60479;BME280;46321;48.398;11.754;2024-03-08T09:47:36;96207.72;;;17.79;30.52
60479;BME280;46321;48.398;11.754;2024-03-08T09:50:05;96194.25;;;18.40;29.73
60479;BME280;46321;48.398;11.754;2024-03-08T09:52:31;96191.72;;;19.70;28.71
60479;BME280;46321;48.398;11.754;2024-03-08T09:54:57;96204.56;;;19.67;28.22
60479;BME280;46321;48.398;11.754;2024-03-08T09:57:23;96202.41;;;20.68;27.70
60479;BME280;46321;48.398;11.754;2024-03-08T09:59:49;96200.66;;;19.29;27.47
60479;BME280;46321;48.398;11.754;2024-03-08T10:02:16;96188.28;;;19.57;27.51
60479;BME280;46321;48.398;11.754;2024-03-08T10:04:41;96190.63;;;20.00;27.06
60479;BME280;46321;48.398;11.754;2024-03-08T10:07:12;96192.25;;;18.36;28.91
60479;BME280;46321;48.398;11.754;2024-03-08T10:09:38;96193.41;;;18.64;28.38
60479;BME280;46321;48.398;11.754;2024-03-08T10:12:04;96178.28;;;20.33;27.05
60479;BME280;46321;48.398;11.754;2024-03-08T10:14:30;96190.66;;;21.36;26.40
60479;BME280;46321;48.398;11.754;2024-03-08T10:16:57;96188.59;;;20.99;25.59
60479;BME280;46321;48.398;11.754;2024-03-08T10:19:25;96167.88;;;21.77;25.12
60479;BME280;46321;48.398;11.754;2024-03-08T10:21:50;96169.47;;;22.82;24.02
60479;BME280;46321;48.398;11.754;2024-03-08T10:24:19;96151.91;;;24.07;22.79
60479;BME280;46321;48.398;11.754;2024-03-08T10:26:45;96174.78;;;21.95;24.38
60479;BME280;46321;48.398;11.754;2024-03-08T10:29:11;96168.34;;;21.96;24.27
60479;BME280;46321;48.398;11.754;2024-03-08T10:31:43;96173.28;;;22.48;23.45
60479;BME280;46321;48.398;11.754;2024-03-08T10:34:08;96167.72;;;22.65;23.56
60479;BME280;46321;48.398;11.754;2024-03-08T10:36:35;96149.84;;;22.54;24.09
60479;BME280;46321;48.398;11.754;2024-03-08T10:39:03;96159.09;;;23.28;22.65
60479;BME280;46321;48.398;11.754;2024-03-08T10:41:34;96142.13;;;26.40;20.52
60479;BME280;46321;48.398;11.754;2024-03-08T10:44:10;96155.31;;;28.17;18.11
60479;BME280;46321;48.398;11.754;2024-03-08T10:49:16;96145.88;;;25.34;20.38
60479;BME280;46321;48.398;11.754;2024-03-08T10:51:42;96152.38;;;25.38;19.13
60479;BME280;46321;48.398;11.754;2024-03-08T10:54:09;96140.00;;;26.07;19.91
60479;BME280;46321;48.398;11.754;2024-03-08T10:56:35;96149.19;;;25.76;19.10
60479;BME280;46321;48.398;11.754;2024-03-08T10:59:01;96144.41;;;25.57;19.36
60479;BME280;46321;48.398;11.754;2024-03-08T11:01:27;96122.88;;;26.66;18.77
60479;BME280;46321;48.398;11.754;2024-03-08T11:03:52;96142.59;;;24.81;19.96
60479;BME280;46321;48.398;11.754;2024-03-08T11:09:02;96126.28;;;25.07;19.45
60479;BME280;46321;48.398;11.754;2024-03-08T11:11:32;96122.69;;;27.84;17.61
60479;BME280;46321;48.398;11.754;2024-03-08T11:14:00;96109.31;;;27.87;18.21
60479;BME280;46321;48.398;11.754;2024-03-08T11:19:00;96103.03;;;28.06;17.74
60479;BME280;46321;48.398;11.754;2024-03-08T11:21:29;96092.44;;;27.52;17.78
60479;BME280;46321;48.398;11.754;2024-03-08T11:24:00;96113.22;;;25.20;19.06
60479;BME280;46321;48.398;11.754;2024-03-08T11:26:25;96094.88;;;25.92;19.10
60479;BME280;46321;48.398;11.754;2024-03-08T11:28:50;96092.91;;;25.63;19.20
60479;BME280;46321;48.398;11.754;2024-03-08T11:33:46;96083.75;;;25.88;18.70
60479;BME280;46321;48.398;11.754;2024-03-08T11:36:24;96077.53;;;25.07;20.15
60479;BME280;46321;48.398;11.754;2024-03-08T11:38:50;96084.53;;;18.34;26.71
60479;BME280;46321;48.398;11.754;2024-03-08T11:41:19;96092.16;;;13.38;34.19
60479;BME280;46321;48.398;11.754;2024-03-08T11:43:45;96090.41;;;12.33;37.31
60479;BME280;46321;48.398;11.754;2024-03-08T11:46:11;96096.22;;;11.57;39.47
60479;BME280;46321;48.398;11.754;2024-03-08T11:48:40;96091.38;;;11.17;40.07
60479;BME280;46321;48.398;11.754;2024-03-08T11:51:10;96090.56;;;11.17;40.97
60479;BME280;46321;48.398;11.754;2024-03-08T11:53:37;96083.84;;;10.62;41.38
60479;BME280;46321;48.398;11.754;2024-03-08T11:56:10;96082.22;;;10.61;41.47
60479;BME280;46321;48.398;11.754;2024-03-08T11:58:36;96079.03;;;10.35;39.90
60479;BME280;46321;48.398;11.754;2024-03-08T12:01:08;96072.13;;;10.19;41.25
60479;BME280;46321;48.398;11.754;2024-03-08T12:03:40;96081.63;;;9.59;42.58
60479;BME280;46321;48.398;11.754;2024-03-08T12:06:08;96075.59;;;9.50;43.34
60479;BME280;46321;48.398;11.754;2024-03-08T12:08:35;96069.59;;;9.57;44.74
60479;BME280;46321;48.398;11.754;2024-03-08T12:11:00;96056.47;;;9.64;44.52
60479;BME280;46321;48.398;11.754;2024-03-08T12:15:56;96044.75;;;10.12;43.22
60479;BME280;46321;48.398;11.754;2024-03-08T12:18:21;96059.97;;;9.79;43.91
60479;BME280;46321;48.398;11.754;2024-03-08T12:20:48;96053.59;;;9.89;44.48
60479;BME280;46321;48.398;11.754;2024-03-08T12:23:15;96044.63;;;9.59;44.93
60479;BME280;46321;48.398;11.754;2024-03-08T12:25:41;96050.84;;;9.67;44.40
60479;BME280;46321;48.398;11.754;2024-03-08T12:28:08;96043.66;;;9.76;44.65
60479;BME280;46321;48.398;11.754;2024-03-08T12:30:58;96052.56;;;9.59;45.79
60479;BME280;46321;48.398;11.754;2024-03-08T12:33:24;96048.91;;;9.22;45.44
60479;BME280;46321;48.398;11.754;2024-03-08T12:35:51;96034.00;;;9.29;45.74
60479;BME280;46321;48.398;11.754;2024-03-08T12:38:20;96029.25;;;9.63;45.46
60479;BME280;46321;48.398;11.754;2024-03-08T12:40:50;96039.25;;;9.14;45.08
60479;BME280;46321;48.398;11.754;2024-03-08T12:43:15;96041.41;;;9.34;43.83
60479;BME280;46321;48.398;11.754;2024-03-08T12:45:41;96035.41;;;9.16;44.03
60479;BME280;46321;48.398;11.754;2024-03-08T12:48:12;96015.25;;;9.39;44.17
60479;BME280;46321;48.398;11.754;2024-03-08T12:50:40;96019.00;;;9.30;44.30
60479;BME280;46321;48.398;11.754;2024-03-08T12:53:05;96028.72;;;9.29;43.64
60479;BME280;46321;48.398;11.754;2024-03-08T12:55:31;96019.53;;;9.25;44.49
60479;BME280;46321;48.398;11.754;2024-03-08T12:57:57;96026.81;;;9.23;44.11
60479;BME280;46321;48.398;11.754;2024-03-08T13:00:23;96020.06;;;8.97;43.35
60479;BME280;46321;48.398;11.754;2024-03-08T13:02:49;96008.56;;;8.89;43.93
60479;BME280;46321;48.398;11.754;2024-03-08T13:05:16;95996.38;;;8.88;44.07
60479;BME280;46321;48.398;11.754;2024-03-08T13:07:42;95988.69;;;9.02;46.13